sensor_id;sensor_type;location;lat;lon;timestamp;P1;durP1;ratioP1;P2;durP2;ratioP2
57047;SDS011;42934;54.294;18.598;2023-06-14T00:01:07;7.82;;;3.15;;
57047;SDS011;42934;54.294;18.598;2023-06-14T00:03:44;5.30;;;2.78;;
57047;SDS011;42934;54.294;18.598;2023-06-14T00:06:15;7.53;;;2.85;;
57047;SDS011;42934;54.294;18.598;2023-06-14T00:08:45;5.15;;;2.75;;
57047;SDS011;42934;54.294;18.598;2023-06-14T00:11:14;5.10;;;2.88;;
57047;SDS011;42934;54.294;18.598;2023-06-14T00:13:43;8.98;;;2.55;;
57047;SDS011;42934;54.294;18.598;2023-06-14T00:16:12;5.80;;;2.78;;
57047;SDS011;42934;54.294;18.598;2023-06-14T00:18:44;14.75;;;3.10;;
57047;SDS011;42934;54.294;18.598;2023-06-14T00:21:13;5.93;;;2.70;;
57047;SDS011;42934;54.294;18.598;2023-06-14T00:23:44;8.35;;;2.85;;
57047;SDS011;42934;54.294;18.598;2023-06-14T00:26:13;8.35;;;2.97;;
57047;SDS011;42934;54.294;18.598;2023-06-14T00:28:44;6.90;;;3.20;;
57047;SDS011;42934;54.294;18.598;2023-06-14T00:31:13;4.60;;;3.00;;
57047;SDS011;42934;54.294;18.598;2023-06-14T00:33:42;5.15;;;2.90;;
57047;SDS011;42934;54.294;18.598;2023-06-14T00:36:11;5.85;;;2.50;;
57047;SDS011;42934;54.294;18.598;2023-06-14T00:38:43;8.80;;;2.90;;
57047;SDS011;42934;54.294;18.598;2023-06-14T00:41:12;6.25;;;2.78;;
57047;SDS011;42934;54.294;18.598;2023-06-14T00:43:42;5.17;;;2.60;;
57047;SDS011;42934;54.294;18.598;2023-06-14T00:46:11;5.50;;;2.78;;
57047;SDS011;42934;54.294;18.598;2023-06-14T00:48:40;6.80;;;3.08;;
57047;SDS011;42934;54.294;18.598;2023-06-14T00:53:40;5.90;;;2.70;;
57047;SDS011;42934;54.294;18.598;2023-06-14T00:56:15;8.20;;;3.00;;
57047;SDS011;42934;54.294;18.598;2023-06-14T00:58:50;5.30;;;2.90;;
57047;SDS011;42934;54.294;18.598;2023-06-14T01:01:19;6.22;;;3.22;;
57047;SDS011;42934;54.294;18.598;2023-06-14T01:03:49;6.00;;;3.05;;
57047;SDS011;42934;54.294;18.598;2023-06-14T01:06:20;5.45;;;2.70;;
57047;SDS011;42934;54.294;18.598;2023-06-14T01:09:01;5.32;;;2.63;;
57047;SDS011;42934;54.294;18.598;2023-06-14T01:11:41;5.78;;;2.95;;
57047;SDS011;42934;54.294;18.598;2023-06-14T01:14:18;6.57;;;2.60;;
57047;SDS011;42934;54.294;18.598;2023-06-14T01:19:20;9.82;;;2.90;;
57047;SDS011;42934;54.294;18.598;2023-06-14T01:21:52;6.90;;;2.85;;
57047;SDS011;42934;54.294;18.598;2023-06-14T01:24:24;6.70;;;2.67;;
57047;SDS011;42934;54.294;18.598;2023-06-14T01:26:59;6.13;;;3.03;;
57047;SDS011;42934;54.294;18.598;2023-06-14T01:29:30;8.35;;;3.00;;
57047;SDS011;42934;54.294;18.598;2023-06-14T01:32:00;3.63;;;2.75;;
57047;SDS011;42934;54.294;18.598;2023-06-14T01:34:32;5.93;;;3.10;;
57047;SDS011;42934;54.294;18.598;2023-06-14T01:37:01;6.30;;;3.23;;
57047;SDS011;42934;54.294;18.598;2023-06-14T01:39:33;5.93;;;2.90;;
57047;SDS011;42934;54.294;18.598;2023-06-14T01:42:03;6.93;;;3.08;;
57047;SDS011;42934;54.294;18.598;2023-06-14T01:44:34;6.88;;;3.08;;
57047;SDS011;42934;54.294;18.598;2023-06-14T01:47:03;7.07;;;3.13;;
57047;SDS011;42934;54.294;18.598;2023-06-14T01:49:33;4.47;;;2.90;;
57047;SDS011;42934;54.294;18.598;2023-06-14T01:52:03;5.07;;;3.10;;
57047;SDS011;42934;54.294;18.598;2023-06-14T01:54:34;5.93;;;3.20;;
57047;SDS011;42934;54.294;18.598;2023-06-14T01:57:08;6.05;;;3.10;;
57047;SDS011;42934;54.294;18.598;2023-06-14T01:59:38;4.78;;;3.33;;
57047;SDS011;42934;54.294;18.598;2023-06-14T02:02:08;6.53;;;3.30;;
57047;SDS011;42934;54.294;18.598;2023-06-14T02:04:37;7.30;;;3.30;;
57047;SDS011;42934;54.294;18.598;2023-06-14T02:07:06;5.90;;;3.17;;
57047;SDS011;42934;54.294;18.598;2023-06-14T02:09:37;6.15;;;3.03;;
57047;SDS011;42934;54.294;18.598;2023-06-14T02:12:06;5.65;;;3.00;;
57047;SDS011;42934;54.294;18.598;2023-06-14T02:14:37;6.43;;;3.33;;
57047;SDS011;42934;54.294;18.598;2023-06-14T02:17:06;9.05;;;3.30;;
57047;SDS011;42934;54.294;18.598;2023-06-14T02:19:35;12.55;;;3.60;;
57047;SDS011;42934;54.294;18.598;2023-06-14T02:22:04;5.47;;;2.95;;
57047;SDS011;42934;54.294;18.598;2023-06-14T02:24:34;8.77;;;3.50;;
57047;SDS011;42934;54.294;18.598;2023-06-14T02:27:08;5.78;;;3.30;;
57047;SDS011;42934;54.294;18.598;2023-06-14T02:29:38;4.70;;;3.10;;
57047;SDS011;42934;54.294;18.598;2023-06-14T02:32:07;5.78;;;3.38;;
57047;SDS011;42934;54.294;18.598;2023-06-14T02:34:38;9.10;;;3.33;;
57047;SDS011;42934;54.294;18.598;2023-06-14T02:37:08;7.07;;;3.30;;
57047;SDS011;42934;54.294;18.598;2023-06-14T02:39:38;5.05;;;3.28;;
57047;SDS011;42934;54.294;18.598;2023-06-14T02:42:08;5.82;;;3.20;;
57047;SDS011;42934;54.294;18.598;2023-06-14T02:44:38;8.30;;;3.72;;
57047;SDS011;42934;54.294;18.598;2023-06-14T02:47:07;5.88;;;3.35;;
57047;SDS011;42934;54.294;18.598;2023-06-14T02:49:36;7.80;;;3.22;;
57047;SDS011;42934;54.294;18.598;2023-06-14T02:52:06;5.10;;;3.25;;
57047;SDS011;42934;54.294;18.598;2023-06-14T02:54:36;6.10;;;3.15;;
57047;SDS011;42934;54.294;18.598;2023-06-14T02:57:05;8.45;;;3.58;;
57047;SDS011;42934;54.294;18.598;2023-06-14T02:59:36;7.78;;;3.63;;
57047;SDS011;42934;54.294;18.598;2023-06-14T03:02:06;8.18;;;3.30;;
57047;SDS011;42934;54.294;18.598;2023-06-14T03:04:35;7.07;;;3.53;;
57047;SDS011;42934;54.294;18.598;2023-06-14T03:07:12;8.13;;;3.58;;
57047;SDS011;42934;54.294;18.598;2023-06-14T03:09:49;7.10;;;3.40;;
57047;SDS011;42934;54.294;18.598;2023-06-14T03:12:19;8.95;;;4.35;;
57047;SDS011;42934;54.294;18.598;2023-06-14T03:14:52;6.63;;;3.53;;
57047;SDS011;42934;54.294;18.598;2023-06-14T03:17:25;6.80;;;3.90;;
57047;SDS011;42934;54.294;18.598;2023-06-14T03:20:02;6.25;;;4.05;;
57047;SDS011;42934;54.294;18.598;2023-06-14T03:22:33;9.07;;;3.75;;
57047;SDS011;42934;54.294;18.598;2023-06-14T03:25:03;9.13;;;4.50;;
57047;SDS011;42934;54.294;18.598;2023-06-14T03:27:36;9.23;;;4.50;;
57047;SDS011;42934;54.294;18.598;2023-06-14T03:32:37;12.25;;;4.97;;
57047;SDS011;42934;54.294;18.598;2023-06-14T03:35:08;9.00;;;4.50;;
57047;SDS011;42934;54.294;18.598;2023-06-14T03:37:44;13.10;;;4.55;;
57047;SDS011;42934;54.294;18.598;2023-06-14T03:40:15;12.38;;;4.35;;
57047;SDS011;42934;54.294;18.598;2023-06-14T03:42:49;8.20;;;4.18;;
57047;SDS011;42934;54.294;18.598;2023-06-14T03:45:20;8.18;;;4.40;;
57047;SDS011;42934;54.294;18.598;2023-06-14T03:47:50;11.25;;;4.68;;
57047;SDS011;42934;54.294;18.598;2023-06-14T03:50:19;8.85;;;4.78;;
57047;SDS011;42934;54.294;18.598;2023-06-14T03:52:49;10.25;;;4.70;;
57047;SDS011;42934;54.294;18.598;2023-06-14T03:55:20;9.20;;;4.70;;
57047;SDS011;42934;54.294;18.598;2023-06-14T03:57:54;9.27;;;4.55;;
57047;SDS011;42934;54.294;18.598;2023-06-14T04:00:25;8.63;;;4.68;;
57047;SDS011;42934;54.294;18.598;2023-06-14T04:02:54;14.80;;;5.00;;
57047;SDS011;42934;54.294;18.598;2023-06-14T04:05:24;7.68;;;4.07;;
57047;SDS011;42934;54.294;18.598;2023-06-14T04:07:55;7.65;;;4.15;;
57047;SDS011;42934;54.294;18.598;2023-06-14T04:10:26;9.65;;;3.92;;
57047;SDS011;42934;54.294;18.598;2023-06-14T04:12:55;6.75;;;3.88;;
57047;SDS011;42934;54.294;18.598;2023-06-14T04:15:26;7.57;;;3.93;;
57047;SDS011;42934;54.294;18.598;2023-06-14T04:17:57;7.32;;;4.20;;
57047;SDS011;42934;54.294;18.598;2023-06-14T04:20:26;7.45;;;4.25;;
57047;SDS011;42934;54.294;18.598;2023-06-14T04:22:56;8.57;;;4.68;;
57047;SDS011;42934;54.294;18.598;2023-06-14T04:25:28;7.60;;;4.60;;
57047;SDS011;42934;54.294;18.598;2023-06-14T04:27:59;7.70;;;4.28;;
57047;SDS011;42934;54.294;18.598;2023-06-14T04:30:30;8.88;;;4.70;;
57047;SDS011;42934;54.294;18.598;2023-06-14T04:32:59;8.23;;;4.63;;
57047;SDS011;42934;54.294;18.598;2023-06-14T04:35:33;11.35;;;4.55;;
57047;SDS011;42934;54.294;18.598;2023-06-14T04:38:04;10.60;;;4.95;;
57047;SDS011;42934;54.294;18.598;2023-06-14T04:40:37;10.02;;;4.50;;
57047;SDS011;42934;54.294;18.598;2023-06-14T04:43:12;13.27;;;5.05;;
57047;SDS011;42934;54.294;18.598;2023-06-14T04:45:46;9.77;;;4.93;;
57047;SDS011;42934;54.294;18.598;2023-06-14T04:48:16;11.45;;;4.75;;
57047;SDS011;42934;54.294;18.598;2023-06-14T04:50:48;9.98;;;5.05;;
57047;SDS011;42934;54.294;18.598;2023-06-14T04:53:20;11.25;;;5.00;;
57047;SDS011;42934;54.294;18.598;2023-06-14T04:55:53;10.85;;;4.68;;
57047;SDS011;42934;54.294;18.598;2023-06-14T04:58:23;8.57;;;4.82;;
57047;SDS011;42934;54.294;18.598;2023-06-14T05:00:54;8.75;;;4.72;;
57047;SDS011;42934;54.294;18.598;2023-06-14T05:03:25;9.20;;;5.20;;
57047;SDS011;42934;54.294;18.598;2023-06-14T05:05:55;10.52;;;4.93;;
57047;SDS011;42934;54.294;18.598;2023-06-14T05:08:24;12.35;;;5.15;;
57047;SDS011;42934;54.294;18.598;2023-06-14T05:10:53;12.25;;;5.03;;
57047;SDS011;42934;54.294;18.598;2023-06-14T05:13:23;14.77;;;4.50;;
57047;SDS011;42934;54.294;18.598;2023-06-14T05:15:57;11.57;;;5.13;;
57047;SDS011;42934;54.294;18.598;2023-06-14T05:18:27;11.50;;;5.07;;
57047;SDS011;42934;54.294;18.598;2023-06-14T05:20:56;8.93;;;5.20;;
57047;SDS011;42934;54.294;18.598;2023-06-14T05:23:25;12.90;;;5.20;;
57047;SDS011;42934;54.294;18.598;2023-06-14T05:25:54;11.02;;;4.75;;
57047;SDS011;42934;54.294;18.598;2023-06-14T05:28:24;8.38;;;4.68;;
57047;SDS011;42934;54.294;18.598;2023-06-14T05:30:53;8.20;;;4.95;;
57047;SDS011;42934;54.294;18.598;2023-06-14T05:33:24;14.45;;;6.28;;
57047;SDS011;42934;54.294;18.598;2023-06-14T05:35:54;13.13;;;5.65;;
57047;SDS011;42934;54.294;18.598;2023-06-14T05:38:23;10.75;;;5.50;;
57047;SDS011;42934;54.294;18.598;2023-06-14T05:40:52;9.45;;;5.03;;
57047;SDS011;42934;54.294;18.598;2023-06-14T05:43:22;12.25;;;5.95;;
57047;SDS011;42934;54.294;18.598;2023-06-14T05:45:51;18.40;;;6.45;;
57047;SDS011;42934;54.294;18.598;2023-06-14T05:48:20;13.93;;;6.45;;
57047;SDS011;42934;54.294;18.598;2023-06-14T05:50:51;14.95;;;7.00;;
57047;SDS011;42934;54.294;18.598;2023-06-14T05:53:20;19.73;;;7.32;;
57047;SDS011;42934;54.294;18.598;2023-06-14T05:55:49;19.45;;;7.00;;
57047;SDS011;42934;54.294;18.598;2023-06-14T05:58:21;15.90;;;7.15;;
57047;SDS011;42934;54.294;18.598;2023-06-14T06:00:50;12.60;;;7.03;;
57047;SDS011;42934;54.294;18.598;2023-06-14T06:03:20;17.85;;;7.03;;
57047;SDS011;42934;54.294;18.598;2023-06-14T06:05:51;18.77;;;7.53;;
57047;SDS011;42934;54.294;18.598;2023-06-14T06:08:20;21.73;;;7.43;;
57047;SDS011;42934;54.294;18.598;2023-06-14T06:10:50;20.80;;;7.85;;
57047;SDS011;42934;54.294;18.598;2023-06-14T06:13:19;16.87;;;8.17;;
57047;SDS011;42934;54.294;18.598;2023-06-14T06:15:48;21.65;;;7.72;;
57047;SDS011;42934;54.294;18.598;2023-06-14T06:18:17;19.65;;;7.65;;
57047;SDS011;42934;54.294;18.598;2023-06-14T06:20:47;20.02;;;8.38;;
57047;SDS011;42934;54.294;18.598;2023-06-14T06:23:18;18.77;;;8.25;;
57047;SDS011;42934;54.294;18.598;2023-06-14T06:25:47;16.55;;;7.72;;
57047;SDS011;42934;54.294;18.598;2023-06-14T06:28:16;18.17;;;8.10;;
57047;SDS011;42934;54.294;18.598;2023-06-14T06:30:46;24.05;;;8.50;;
57047;SDS011;42934;54.294;18.598;2023-06-14T06:33:15;25.33;;;8.95;;
57047;SDS011;42934;54.294;18.598;2023-06-14T06:35:44;18.52;;;9.23;;
57047;SDS011;42934;54.294;18.598;2023-06-14T06:38:13;20.38;;;8.32;;
57047;SDS011;42934;54.294;18.598;2023-06-14T06:40:44;18.90;;;8.65;;
57047;SDS011;42934;54.294;18.598;2023-06-14T06:43:13;25.60;;;9.07;;
57047;SDS011;42934;54.294;18.598;2023-06-14T06:45:47;22.10;;;8.73;;
57047;SDS011;42934;54.294;18.598;2023-06-14T06:48:16;20.58;;;8.75;;
57047;SDS011;42934;54.294;18.598;2023-06-14T06:50:45;23.75;;;8.38;;
57047;SDS011;42934;54.294;18.598;2023-06-14T06:53:14;18.67;;;8.02;;
57047;SDS011;42934;54.294;18.598;2023-06-14T06:56:02;26.33;;;8.48;;
57047;SDS011;42934;54.294;18.598;2023-06-14T06:58:32;25.65;;;8.07;;
57047;SDS011;42934;54.294;18.598;2023-06-14T07:01:01;14.20;;;7.55;;
57047;SDS011;42934;54.294;18.598;2023-06-14T07:03:30;16.97;;;7.97;;
57047;SDS011;42934;54.294;18.598;2023-06-14T07:06:00;19.25;;;8.43;;
57047;SDS011;42934;54.294;18.598;2023-06-14T07:08:29;16.73;;;7.60;;
57047;SDS011;42934;54.294;18.598;2023-06-14T07:10:58;17.85;;;7.32;;
57047;SDS011;42934;54.294;18.598;2023-06-14T07:13:29;26.50;;;8.60;;
57047;SDS011;42934;54.294;18.598;2023-06-14T07:15:59;21.20;;;7.65;;
57047;SDS011;42934;54.294;18.598;2023-06-14T07:18:29;20.52;;;6.97;;
57047;SDS011;42934;54.294;18.598;2023-06-14T07:20:58;19.30;;;6.57;;
57047;SDS011;42934;54.294;18.598;2023-06-14T07:23:27;15.05;;;6.05;;
57047;SDS011;42934;54.294;18.598;2023-06-14T07:25:57;16.70;;;6.68;;
57047;SDS011;42934;54.294;18.598;2023-06-14T07:28:26;15.38;;;6.40;;
57047;SDS011;42934;54.294;18.598;2023-06-14T07:30:57;21.02;;;6.50;;
57047;SDS011;42934;54.294;18.598;2023-06-14T07:33:26;23.45;;;6.47;;
57047;SDS011;42934;54.294;18.598;2023-06-14T07:35:55;12.55;;;6.65;;
57047;SDS011;42934;54.294;18.598;2023-06-14T07:38:24;19.38;;;6.40;;
57047;SDS011;42934;54.294;18.598;2023-06-14T07:40:54;18.88;;;7.05;;
57047;SDS011;42934;54.294;18.598;2023-06-14T07:43:23;15.13;;;5.53;;
57047;SDS011;42934;54.294;18.598;2023-06-14T07:45:54;18.17;;;5.75;;
57047;SDS011;42934;54.294;18.598;2023-06-14T07:48:33;10.55;;;5.57;;
57047;SDS011;42934;54.294;18.598;2023-06-14T07:51:03;15.20;;;6.07;;
57047;SDS011;42934;54.294;18.598;2023-06-14T07:53:32;10.15;;;5.20;;
57047;SDS011;42934;54.294;18.598;2023-06-14T07:56:02;17.98;;;5.85;;
57047;SDS011;42934;54.294;18.598;2023-06-14T07:58:31;12.80;;;4.97;;
57047;SDS011;42934;54.294;18.598;2023-06-14T08:01:02;17.20;;;5.20;;
57047;SDS011;42934;54.294;18.598;2023-06-14T08:03:33;9.35;;;4.50;;
57047;SDS011;42934;54.294;18.598;2023-06-14T08:06:02;9.45;;;4.88;;
57047;SDS011;42934;54.294;18.598;2023-06-14T08:11:02;14.63;;;4.50;;
57047;SDS011;42934;54.294;18.598;2023-06-14T08:13:31;15.50;;;4.67;;
57047;SDS011;42934;54.294;18.598;2023-06-14T08:16:01;12.63;;;5.13;;
57047;SDS011;42934;54.294;18.598;2023-06-14T08:18:32;17.13;;;4.90;;
57047;SDS011;42934;54.294;18.598;2023-06-14T08:21:01;19.38;;;5.07;;
57047;SDS011;42934;54.294;18.598;2023-06-14T08:23:30;9.52;;;4.65;;
57047;SDS011;42934;54.294;18.598;2023-06-14T08:26:00;10.82;;;4.40;;
57047;SDS011;42934;54.294;18.598;2023-06-14T08:28:30;10.48;;;4.78;;
57047;SDS011;42934;54.294;18.598;2023-06-14T08:31:01;9.15;;;5.10;;
57047;SDS011;42934;54.294;18.598;2023-06-14T08:33:30;12.32;;;4.80;;
57047;SDS011;42934;54.294;18.598;2023-06-14T08:36:01;15.30;;;5.15;;
57047;SDS011;42934;54.294;18.598;2023-06-14T08:38:31;9.70;;;5.00;;
57047;SDS011;42934;54.294;18.598;2023-06-14T08:41:00;12.55;;;4.82;;
57047;SDS011;42934;54.294;18.598;2023-06-14T08:43:31;14.23;;;4.70;;
57047;SDS011;42934;54.294;18.598;2023-06-14T08:46:02;13.43;;;5.40;;
57047;SDS011;42934;54.294;18.598;2023-06-14T08:48:32;13.05;;;5.20;;
57047;SDS011;42934;54.294;18.598;2023-06-14T08:51:03;8.80;;;4.72;;
57047;SDS011;42934;54.294;18.598;2023-06-14T08:53:33;14.60;;;5.22;;
57047;SDS011;42934;54.294;18.598;2023-06-14T08:56:09;11.93;;;5.10;;
57047;SDS011;42934;54.294;18.598;2023-06-14T08:58:40;12.27;;;5.22;;
57047;SDS011;42934;54.294;18.598;2023-06-14T09:01:13;15.18;;;5.20;;
57047;SDS011;42934;54.294;18.598;2023-06-14T09:03:44;10.93;;;5.10;;
57047;SDS011;42934;54.294;18.598;2023-06-14T09:06:15;14.52;;;5.78;;
57047;SDS011;42934;54.294;18.598;2023-06-14T09:08:46;11.25;;;6.28;;
57047;SDS011;42934;54.294;18.598;2023-06-14T09:11:17;13.40;;;6.20;;
57047;SDS011;42934;54.294;18.598;2023-06-14T09:13:48;12.80;;;6.70;;
57047;SDS011;42934;54.294;18.598;2023-06-14T09:16:19;17.85;;;7.60;;
57047;SDS011;42934;54.294;18.598;2023-06-14T09:18:48;22.20;;;8.32;;
57047;SDS011;42934;54.294;18.598;2023-06-14T09:21:17;20.95;;;8.70;;
57047;SDS011;42934;54.294;18.598;2023-06-14T09:23:47;20.08;;;9.93;;
57047;SDS011;42934;54.294;18.598;2023-06-14T09:26:17;20.15;;;9.95;;
57047;SDS011;42934;54.294;18.598;2023-06-14T09:28:50;21.52;;;11.23;;
57047;SDS011;42934;54.294;18.598;2023-06-14T09:31:21;21.20;;;11.77;;
57047;SDS011;42934;54.294;18.598;2023-06-14T09:33:50;18.85;;;11.10;;
57047;SDS011;42934;54.294;18.598;2023-06-14T09:36:21;25.55;;;14.25;;
57047;SDS011;42934;54.294;18.598;2023-06-14T09:38:52;34.50;;;16.77;;
57047;SDS011;42934;54.294;18.598;2023-06-14T09:41:29;26.38;;;12.02;;
57047;SDS011;42934;54.294;18.598;2023-06-14T09:44:00;23.77;;;11.57;;
57047;SDS011;42934;54.294;18.598;2023-06-14T09:46:37;20.98;;;11.00;;
57047;SDS011;42934;54.294;18.598;2023-06-14T09:49:08;30.02;;;11.35;;
57047;SDS011;42934;54.294;18.598;2023-06-14T09:51:42;29.40;;;13.45;;
57047;SDS011;42934;54.294;18.598;2023-06-14T09:54:15;31.58;;;15.68;;
57047;SDS011;42934;54.294;18.598;2023-06-14T09:56:49;22.10;;;11.98;;
57047;SDS011;42934;54.294;18.598;2023-06-14T09:59:21;32.03;;;10.93;;
57047;SDS011;42934;54.294;18.598;2023-06-14T10:01:58;19.13;;;9.80;;
57047;SDS011;42934;54.294;18.598;2023-06-14T10:04:33;16.02;;;7.72;;
57047;SDS011;42934;54.294;18.598;2023-06-14T10:07:03;24.83;;;8.45;;
57047;SDS011;42934;54.294;18.598;2023-06-14T10:09:33;20.08;;;8.57;;
57047;SDS011;42934;54.294;18.598;2023-06-14T10:12:03;25.02;;;8.27;;
57047;SDS011;42934;54.294;18.598;2023-06-14T10:14:33;21.42;;;8.40;;
57047;SDS011;42934;54.294;18.598;2023-06-14T10:17:04;25.98;;;7.00;;
57047;SDS011;42934;54.294;18.598;2023-06-14T10:19:50;15.82;;;6.57;;
57047;SDS011;42934;54.294;18.598;2023-06-14T10:22:26;19.13;;;6.35;;
57047;SDS011;42934;54.294;18.598;2023-06-14T10:25:01;14.32;;;5.85;;
57047;SDS011;42934;54.294;18.598;2023-06-14T10:27:39;10.05;;;4.68;;
57047;SDS011;42934;54.294;18.598;2023-06-14T10:30:14;14.75;;;4.82;;
57047;SDS011;42934;54.294;18.598;2023-06-14T10:33:04;10.65;;;4.93;;
57047;SDS011;42934;54.294;18.598;2023-06-14T10:35:34;11.70;;;4.53;;
57047;SDS011;42934;54.294;18.598;2023-06-14T10:38:07;10.80;;;4.40;;
57047;SDS011;42934;54.294;18.598;2023-06-14T10:40:37;21.15;;;4.65;;
57047;SDS011;42934;54.294;18.598;2023-06-14T10:43:21;13.05;;;4.55;;
57047;SDS011;42934;54.294;18.598;2023-06-14T10:48:50;9.65;;;3.67;;
57047;SDS011;42934;54.294;18.598;2023-06-14T10:51:29;8.00;;;3.65;;
57047;SDS011;42934;54.294;18.598;2023-06-14T10:54:13;8.43;;;3.90;;
57047;SDS011;42934;54.294;18.598;2023-06-14T10:56:45;10.40;;;3.42;;
57047;SDS011;42934;54.294;18.598;2023-06-14T10:59:16;15.20;;;4.25;;
57047;SDS011;42934;54.294;18.598;2023-06-14T11:01:49;11.10;;;3.95;;
57047;SDS011;42934;54.294;18.598;2023-06-14T11:04:30;16.50;;;5.03;;
57047;SDS011;42934;54.294;18.598;2023-06-14T11:07:24;8.02;;;4.35;;
57047;SDS011;42934;54.294;18.598;2023-06-14T11:10:10;18.90;;;6.35;;
57047;SDS011;42934;54.294;18.598;2023-06-14T11:12:50;21.02;;;6.57;;
57047;SDS011;42934;54.294;18.598;2023-06-14T11:15:27;19.92;;;7.63;;
57047;SDS011;42934;54.294;18.598;2023-06-14T11:17:57;18.45;;;7.45;;
57047;SDS011;42934;54.294;18.598;2023-06-14T11:20:31;16.33;;;6.88;;
57047;SDS011;42934;54.294;18.598;2023-06-14T11:23:02;16.65;;;7.40;;
57047;SDS011;42934;54.294;18.598;2023-06-14T11:25:32;17.45;;;7.07;;
57047;SDS011;42934;54.294;18.598;2023-06-14T11:28:01;15.80;;;5.95;;
57047;SDS011;42934;54.294;18.598;2023-06-14T11:30:30;10.90;;;5.32;;
57047;SDS011;42934;54.294;18.598;2023-06-14T11:32:59;16.92;;;6.35;;
57047;SDS011;42934;54.294;18.598;2023-06-14T11:35:30;11.38;;;4.82;;
57047;SDS011;42934;54.294;18.598;2023-06-14T11:38:01;13.60;;;4.80;;
57047;SDS011;42934;54.294;18.598;2023-06-14T11:40:30;10.85;;;4.43;;
57047;SDS011;42934;54.294;18.598;2023-06-14T11:42:59;12.60;;;4.15;;
57047;SDS011;42934;54.294;18.598;2023-06-14T11:45:31;14.80;;;4.80;;
57047;SDS011;42934;54.294;18.598;2023-06-14T11:48:00;15.05;;;4.40;;
57047;SDS011;42934;54.294;18.598;2023-06-14T11:50:31;16.60;;;4.32;;
57047;SDS011;42934;54.294;18.598;2023-06-14T11:53:01;11.65;;;5.18;;
57047;SDS011;42934;54.294;18.598;2023-06-14T11:55:35;14.10;;;5.53;;
57047;SDS011;42934;54.294;18.598;2023-06-14T11:58:06;9.63;;;6.10;;
57047;SDS011;42934;54.294;18.598;2023-06-14T12:00:35;9.70;;;5.35;;
57047;SDS011;42934;54.294;18.598;2023-06-14T12:03:06;14.68;;;5.60;;
57047;SDS011;42934;54.294;18.598;2023-06-14T12:05:38;14.55;;;5.47;;
57047;SDS011;42934;54.294;18.598;2023-06-14T12:08:07;14.23;;;5.00;;
57047;SDS011;42934;54.294;18.598;2023-06-14T12:10:40;13.80;;;4.40;;
57047;SDS011;42934;54.294;18.598;2023-06-14T12:13:10;12.50;;;3.85;;
57047;SDS011;42934;54.294;18.598;2023-06-14T12:15:40;11.13;;;3.90;;
57047;SDS011;42934;54.294;18.598;2023-06-14T12:18:09;7.88;;;3.75;;
57047;SDS011;42934;54.294;18.598;2023-06-14T12:20:41;8.13;;;3.63;;
57047;SDS011;42934;54.294;18.598;2023-06-14T12:23:10;12.30;;;3.47;;
57047;SDS011;42934;54.294;18.598;2023-06-14T12:25:39;9.80;;;3.67;;
57047;SDS011;42934;54.294;18.598;2023-06-14T12:28:11;5.75;;;3.50;;
57047;SDS011;42934;54.294;18.598;2023-06-14T12:30:41;7.38;;;3.30;;
57047;SDS011;42934;54.294;18.598;2023-06-14T12:33:10;12.95;;;3.40;;
57047;SDS011;42934;54.294;18.598;2023-06-14T12:35:41;11.80;;;3.40;;
57047;SDS011;42934;54.294;18.598;2023-06-14T12:38:10;9.95;;;3.50;;
57047;SDS011;42934;54.294;18.598;2023-06-14T12:40:40;7.05;;;2.92;;
57047;SDS011;42934;54.294;18.598;2023-06-14T12:43:09;8.30;;;3.15;;
57047;SDS011;42934;54.294;18.598;2023-06-14T12:45:39;12.88;;;3.28;;
57047;SDS011;42934;54.294;18.598;2023-06-14T12:48:08;9.68;;;3.20;;
57047;SDS011;42934;54.294;18.598;2023-06-14T12:50:37;13.15;;;3.35;;
57047;SDS011;42934;54.294;18.598;2023-06-14T12:53:08;8.63;;;3.30;;
57047;SDS011;42934;54.294;18.598;2023-06-14T12:55:38;7.55;;;3.10;;
57047;SDS011;42934;54.294;18.598;2023-06-14T12:58:07;15.70;;;3.85;;
57047;SDS011;42934;54.294;18.598;2023-06-14T13:00:36;10.90;;;3.17;;
57047;SDS011;42934;54.294;18.598;2023-06-14T13:03:05;7.10;;;3.33;;
57047;SDS011;42934;54.294;18.598;2023-06-14T13:08:09;8.35;;;3.17;;
57047;SDS011;42934;54.294;18.598;2023-06-14T13:10:38;7.72;;;2.90;;
57047;SDS011;42934;54.294;18.598;2023-06-14T13:13:07;5.93;;;3.17;;
57047;SDS011;42934;54.294;18.598;2023-06-14T13:15:39;11.75;;;3.25;;
57047;SDS011;42934;54.294;18.598;2023-06-14T13:18:08;9.77;;;3.42;;
57047;SDS011;42934;54.294;18.598;2023-06-14T13:20:40;8.38;;;3.25;;
57047;SDS011;42934;54.294;18.598;2023-06-14T13:23:12;14.70;;;3.20;;
57047;SDS011;42934;54.294;18.598;2023-06-14T13:25:42;6.18;;;3.13;;
57047;SDS011;42934;54.294;18.598;2023-06-14T13:30:42;11.80;;;3.17;;
57047;SDS011;42934;54.294;18.598;2023-06-14T13:33:12;8.88;;;3.60;;
57047;SDS011;42934;54.294;18.598;2023-06-14T13:35:42;9.32;;;2.95;;
57047;SDS011;42934;54.294;18.598;2023-06-14T13:38:13;6.18;;;3.08;;
57047;SDS011;42934;54.294;18.598;2023-06-14T13:40:44;6.78;;;3.05;;
57047;SDS011;42934;54.294;18.598;2023-06-14T13:43:13;10.13;;;3.35;;
57047;SDS011;42934;54.294;18.598;2023-06-14T13:45:43;8.60;;;3.30;;
57047;SDS011;42934;54.294;18.598;2023-06-14T13:48:12;10.40;;;3.05;;
57047;SDS011;42934;54.294;18.598;2023-06-14T13:50:42;11.15;;;3.00;;
57047;SDS011;42934;54.294;18.598;2023-06-14T13:53:14;13.05;;;3.13;;
57047;SDS011;42934;54.294;18.598;2023-06-14T13:55:45;6.82;;;2.83;;
57047;SDS011;42934;54.294;18.598;2023-06-14T13:58:14;8.57;;;2.83;;
57047;SDS011;42934;54.294;18.598;2023-06-14T14:00:44;5.75;;;3.03;;
57047;SDS011;42934;54.294;18.598;2023-06-14T14:03:14;7.38;;;2.95;;
57047;SDS011;42934;54.294;18.598;2023-06-14T14:05:44;12.65;;;3.33;;
57047;SDS011;42934;54.294;18.598;2023-06-14T14:08:14;7.97;;;2.85;;
57047;SDS011;42934;54.294;18.598;2023-06-14T14:10:44;8.65;;;2.90;;
57047;SDS011;42934;54.294;18.598;2023-06-14T14:13:14;6.18;;;2.83;;
57047;SDS011;42934;54.294;18.598;2023-06-14T14:15:45;6.70;;;3.20;;
57047;SDS011;42934;54.294;18.598;2023-06-14T14:18:15;9.63;;;3.20;;
57047;SDS011;42934;54.294;18.598;2023-06-14T14:23:16;5.28;;;2.90;;
57047;SDS011;42934;54.294;18.598;2023-06-14T14:25:47;8.00;;;3.08;;
57047;SDS011;42934;54.294;18.598;2023-06-14T14:28:16;9.17;;;2.83;;
57047;SDS011;42934;54.294;18.598;2023-06-14T14:30:47;11.82;;;3.05;;
57047;SDS011;42934;54.294;18.598;2023-06-14T14:33:16;9.48;;;3.17;;
57047;SDS011;42934;54.294;18.598;2023-06-14T14:35:46;4.03;;;2.42;;
57047;SDS011;42934;54.294;18.598;2023-06-14T14:40:47;8.05;;;3.10;;
57047;SDS011;42934;54.294;18.598;2023-06-14T14:43:16;11.45;;;3.33;;
57047;SDS011;42934;54.294;18.598;2023-06-14T14:45:45;6.88;;;3.10;;
57047;SDS011;42934;54.294;18.598;2023-06-14T14:48:14;4.23;;;3.10;;
57047;SDS011;42934;54.294;18.598;2023-06-14T14:50:44;8.55;;;3.30;;
57047;SDS011;42934;54.294;18.598;2023-06-14T14:53:13;6.05;;;2.83;;
57047;SDS011;42934;54.294;18.598;2023-06-14T14:55:45;4.55;;;2.90;;
57047;SDS011;42934;54.294;18.598;2023-06-14T14:58:15;6.03;;;2.72;;
57047;SDS011;42934;54.294;18.598;2023-06-14T15:00:45;7.88;;;3.40;;
57047;SDS011;42934;54.294;18.598;2023-06-14T15:03:15;5.78;;;3.28;;
57047;SDS011;42934;54.294;18.598;2023-06-14T15:05:44;10.60;;;3.08;;
57047;SDS011;42934;54.294;18.598;2023-06-14T15:08:18;10.00;;;3.13;;
57047;SDS011;42934;54.294;18.598;2023-06-14T15:10:49;8.27;;;3.25;;